Time;durP1;ratioP1;P1;durP2;ratioP2;P2;SDS_P1;SDS_P2;PMS_P1;PMS_P2;Temp;Humidity;BMP_temperature;BMP_pressure;BME280_temperature;BME280_humidity;BME280_pressure;Samples;Min_cycle;Max_cycle;Signal;HPM_P1;HPM_P2
2022/11/15 00:01:48;;;;;;;13.35;9.07;;;9.10;99.90;;;;;;5005677;28;20108;-67
2022/11/15 00:04:14;;;;;;;13.23;8.82;;;9.10;99.90;;;;;;5003302;28;20096;-66
2022/11/15 00:06:39;;;;;;;16.08;9.95;;;9.00;99.90;;;;;;5004971;28;20191;-67
2022/11/15 00:09:05;;;;;;;16.23;9.77;;;9.00;99.90;;;;;;4986916;28;20392;-66
2022/11/15 00:11:31;;;;;;;14.68;9.73;;;9.00;99.90;;;;;;5004937;28;20050;-65
2022/11/15 00:13:57;;;;;;;14.60;10.57;;;8.90;99.90;;;;;;4987544;28;20042;-66
2022/11/15 00:16:24;;;;;;;15.32;10.02;;;8.90;99.90;;;;;;5002511;28;20042;-66
2022/11/15 00:18:51;;;;;;;15.18;10.02;;;8.80;99.90;;;;;;5000019;28;20124;-66
2022/11/15 00:21:17;;;;;;;14.52;9.77;;;8.90;99.90;;;;;;5003998;28;20095;-66
2022/11/15 00:23:42;;;;;;;14.88;10.15;;;8.80;99.90;;;;;;4988835;28;20144;-65
2022/11/15 00:26:11;;;;;;;18.15;10.93;;;8.80;99.90;;;;;;5001151;28;20133;-65
2022/11/15 00:28:37;;;;;;;15.75;9.43;;;8.80;99.90;;;;;;4985795;28;20558;-65
2022/11/15 00:31:04;;;;;;;13.95;9.98;;;8.70;99.90;;;;;;5017859;28;20129;-66
2022/11/15 00:33:30;;;;;;;14.80;9.93;;;8.70;99.90;;;;;;5001675;28;20472;-65
2022/11/15 00:36:04;;;;;;;16.52;11.10;;;8.70;99.90;;;;;;5003864;28;20108;-67
2022/11/15 00:38:33;;;;;;;14.10;9.70;;;8.70;99.90;;;;;;5004782;28;20037;-65
2022/11/15 00:41:00;;;;;;;14.43;10.02;;;8.70;99.90;;;;;;4987458;28;20045;-67
2022/11/15 00:43:26;;;;;;;14.32;9.73;;;8.70;99.90;;;;;;5006731;28;20565;-65
2022/11/15 00:45:51;;;;;;;15.25;9.48;;;8.70;99.90;;;;;;4999801;28;20050;-65
2022/11/15 00:48:17;;;;;;;16.48;9.55;;;8.60;99.90;;;;;;5008013;28;20082;-65
2022/11/15 00:50:43;;;;;;;16.17;9.85;;;8.50;99.90;;;;;;4996572;28;20072;-66
2022/11/15 00:53:10;;;;;;;13.43;10.00;;;8.40;99.90;;;;;;5004104;28;20810;-65
2022/11/15 00:55:35;;;;;;;16.42;10.05;;;8.30;99.90;;;;;;4988447;28;20052;-64
2022/11/15 00:58:01;;;;;;;16.60;10.45;;;8.20;99.90;;;;;;5017149;28;20141;-67
2022/11/15 01:00:27;;;;;;;13.23;9.73;;;8.20;99.90;;;;;;5002613;28;20067;-65
2022/11/15 01:02:53;;;;;;;15.45;10.13;;;8.10;99.90;;;;;;5021380;28;20042;-65
2022/11/15 01:05:21;;;;;;;14.38;10.25;;;8.00;99.90;;;;;;5014340;28;20321;-66
2022/11/15 01:07:46;;;;;;;17.73;11.05;;;8.00;99.90;;;;;;5006197;28;20045;-65
2022/11/15 01:10:12;;;;;;;17.02;10.38;;;8.00;99.90;;;;;;4993805;28;20391;-65
2022/11/15 01:12:38;;;;;;;28.75;11.70;;;8.00;99.90;;;;;;5011432;28;20430;-66
2022/11/15 01:15:04;;;;;;;14.52;10.35;;;8.00;99.90;;;;;;4993492;28;20042;-66
2022/11/15 01:17:30;;;;;;;15.40;10.18;;;8.00;99.90;;;;;;5012244;28;20045;-65
2022/11/15 01:19:56;;;;;;;14.70;10.00;;;8.00;99.90;;;;;;5010894;28;20495;-65
2022/11/15 01:22:22;;;;;;;14.77;9.80;;;8.00;99.90;;;;;;5007408;28;20483;-65
2022/11/15 01:24:50;;;;;;;14.90;10.05;;;8.00;99.90;;;;;;5011709;28;20136;-64
2022/11/15 01:27:15;;;;;;;17.60;10.48;;;8.00;99.90;;;;;;4995415;28;20193;-66
2022/11/15 01:29:41;;;;;;;16.48;10.38;;;8.00;99.90;;;;;;5027825;28;20148;-64
2022/11/15 01:32:07;;;;;;;14.50;10.10;;;7.90;99.90;;;;;;5028223;28;20121;-64
2022/11/15 01:34:32;;;;;;;16.02;11.02;;;7.90;99.90;;;;;;5011510;28;20093;-65
2022/11/15 01:36:58;;;;;;;14.35;9.80;;;7.90;99.90;;;;;;5011605;28;20046;-64
2022/11/15 01:39:24;;;;;;;16.10;10.45;;;7.90;99.90;;;;;;5002313;28;20049;-64
2022/11/15 01:41:50;;;;;;;16.20;10.15;;;7.90;99.90;;;;;;5011430;28;20060;-66
2022/11/15 01:44:51;;;;;;;15.73;10.32;;;7.90;99.90;;;;;;5011938;28;20352;-65
2022/11/15 01:47:25;;;;;;;16.48;10.60;;;7.90;99.90;;;;;;5010754;28;20454;-65
2022/11/15 01:49:58;;;;;;;17.90;10.60;;;7.90;99.90;;;;;;4995112;28;20426;-64
2022/11/15 01:52:25;;;;;;;18.55;10.60;;;7.90;99.90;;;;;;5011027;28;20184;-66
2022/11/15 01:54:55;;;;;;;15.00;10.43;;;7.90;99.90;;;;;;5008665;28;20055;-64
2022/11/15 01:57:21;;;;;;;18.40;11.68;;;7.90;99.90;;;;;;5021876;28;20049;-64
2022/11/15 01:59:47;;;;;;;18.20;10.88;;;7.90;99.90;;;;;;5011244;28;20121;-64
2022/11/15 02:02:13;;;;;;;17.08;10.30;;;7.90;99.90;;;;;;5011313;28;20115;-66
2022/11/15 02:04:43;;;;;;;17.77;10.93;;;7.90;99.90;;;;;;5009792;28;20162;-65
2022/11/15 02:07:10;;;;;;;17.70;11.30;;;7.90;99.90;;;;;;5011121;28;20056;-66
2022/11/15 02:09:37;;;;;;;15.98;9.85;;;7.90;99.90;;;;;;5010366;28;20111;-64
2022/11/15 02:12:03;;;;;;;15.30;10.02;;;7.90;99.90;;;;;;4992385;28;20112;-65
2022/11/15 02:14:29;;;;;;;17.55;10.48;;;7.90;99.90;;;;;;5007244;28;20086;-64
2022/11/15 02:17:02;;;;;;;18.25;10.75;;;8.00;99.90;;;;;;4993620;28;20046;-65
2022/11/15 02:19:34;;;;;;;17.67;10.27;;;8.00;99.90;;;;;;5009918;28;20463;-65
2022/11/15 02:22:05;;;;;;;16.73;9.95;;;8.00;99.90;;;;;;5012015;28;20045;-65
2022/11/15 02:24:49;;;;;;;17.35;9.77;;;8.10;99.90;;;;;;5011072;28;20578;-66
2022/11/15 02:27:29;;;;;;;16.48;10.27;;;8.10;99.90;;;;;;5004014;28;20104;-64
2022/11/15 02:30:19;;;;;;;18.85;10.35;;;8.10;99.90;;;;;;5026767;28;20053;-64
2022/11/15 02:32:50;;;;;;;17.63;11.45;;;8.10;99.90;;;;;;5010320;28;20463;-65
2022/11/15 02:35:48;;;;;;;15.05;9.63;;;8.10;99.90;;;;;;5010384;28;20157;-64
2022/11/15 02:38:19;;;;;;;16.63;10.68;;;8.10;99.90;;;;;;5017754;28;20129;-66
2022/11/15 02:41:01;;;;;;;15.85;9.75;;;8.20;99.90;;;;;;4993720;28;20683;-67
2022/11/15 02:43:58;;;;;;;16.88;9.80;;;8.20;99.90;;;;;;4992785;28;20049;-66
2022/11/15 02:49:32;;;;;;;14.67;10.00;;;8.30;99.90;;;;;;5010611;28;20069;-64
2022/11/15 02:51:58;;;;;;;15.00;9.55;;;8.30;99.90;;;;;;4990529;28;20129;-67
2022/11/15 02:54:29;;;;;;;16.73;10.18;;;8.30;99.90;;;;;;5007665;28;20563;-66
2022/11/15 02:57:16;;;;;;;16.15;10.13;;;8.30;99.90;;;;;;5004211;28;20476;-64
2022/11/15 02:59:54;;;;;;;16.60;9.80;;;8.20;99.90;;;;;;5007224;28;20502;-64
2022/11/15 03:02:44;;;;;;;13.88;9.45;;;8.20;99.90;;;;;;4988051;28;20050;-66
2022/11/15 03:05:16;;;;;;;13.85;9.60;;;8.20;99.90;;;;;;5004486;28;20048;-64
2022/11/15 03:08:05;;;;;;;14.32;9.75;;;8.30;99.90;;;;;;5021589;28;20057;-65
2022/11/15 03:10:47;;;;;;;15.02;9.15;;;8.30;99.90;;;;;;5010525;28;20049;-67
2022/11/15 03:13:26;;;;;;;17.58;8.73;;;8.40;99.90;;;;;;5022356;28;20132;-66
2022/11/15 03:15:57;;;;;;;19.77;9.77;;;8.40;99.90;;;;;;5011195;28;20046;-65
2022/11/15 03:18:33;;;;;;;14.70;9.43;;;8.50;99.90;;;;;;5009354;28;20510;-66
2022/11/15 03:21:00;;;;;;;14.90;9.07;;;8.50;99.90;;;;;;5010788;28;20045;-63
2022/11/15 03:23:25;;;;;;;15.95;10.00;;;8.60;99.90;;;;;;5009819;28;20042;-64
2022/11/15 03:25:51;;;;;;;15.38;9.60;;;8.60;99.90;;;;;;5009399;28;20052;-65
2022/11/15 03:28:22;;;;;;;15.13;9.20;;;8.70;99.90;;;;;;5041887;28;20046;-66
2022/11/15 03:30:48;;;;;;;17.58;9.95;;;8.70;99.90;;;;;;5007844;28;20279;-64
2022/11/15 03:33:13;;;;;;;16.10;8.70;;;8.70;99.90;;;;;;4992960;28;20046;-66
2022/11/15 03:35:41;;;;;;;13.93;9.13;;;8.70;99.90;;;;;;5007966;28;20042;-64
2022/11/15 03:38:13;;;;;;;13.98;8.55;;;8.80;99.90;;;;;;4992851;28;20384;-65
2022/11/15 03:40:40;;;;;;;12.10;8.77;;;8.80;99.90;;;;;;5009540;28;20075;-64
2022/11/15 03:43:31;;;;;;;13.10;8.95;;;8.80;99.90;;;;;;4991730;28;20077;-66
2022/11/15 03:46:02;;;;;;;15.57;9.10;;;8.80;99.90;;;;;;5000049;28;20058;-65
2022/11/15 03:48:33;;;;;;;12.18;8.55;;;8.60;99.90;;;;;;5004698;28;20049;-65
2022/11/15 03:50:59;;;;;;;14.05;9.57;;;8.60;99.90;;;;;;5009488;28;20050;-64
2022/11/15 03:53:24;;;;;;;21.52;9.55;;;8.50;99.90;;;;;;4990184;28;20101;-65
2022/11/15 03:55:50;;;;;;;17.58;8.70;;;8.60;99.90;;;;;;5009283;28;20052;-64
2022/11/15 03:58:16;;;;;;;14.73;9.20;;;8.60;99.90;;;;;;4992953;28;20056;-65
2022/11/15 04:00:42;;;;;;;13.45;8.88;;;8.70;99.90;;;;;;5006992;28;20042;-65
2022/11/15 04:03:07;;;;;;;16.10;9.25;;;8.60;99.90;;;;;;5008828;28;20053;-66
2022/11/15 04:05:33;;;;;;;13.80;9.27;;;8.60;99.90;;;;;;4988429;28;20170;-65
2022/11/15 04:07:59;;;;;;;14.15;8.77;;;8.60;99.90;;;;;;5025064;28;20045;-65
2022/11/15 04:10:25;;;;;;;16.80;9.98;;;8.50;99.90;;;;;;5005577;28;20050;-65
2022/11/15 04:12:51;;;;;;;14.18;9.80;;;8.40;99.90;;;;;;4997993;28;20466;-64
2022/11/15 04:15:18;;;;;;;16.65;10.55;;;8.40;99.90;;;;;;5009591;28;20057;-65
2022/11/15 04:17:49;;;;;;;15.33;10.37;;;8.40;99.90;;;;;;4993403;28;20045;-66
2022/11/15 04:25:54;;;;;;;14.38;9.75;;;8.10;99.90;;;;;;5009102;28;20056;-65
2022/11/15 04:28:20;;;;;;;16.02;9.90;;;8.10;99.90;;;;;;4991936;28;20173;-64
2022/11/15 04:30:46;;;;;;;15.88;10.25;;;8.00;99.90;;;;;;5007557;28;20053;-65
2022/11/15 04:33:12;;;;;;;17.23;10.25;;;8.00;99.90;;;;;;4992244;28;20455;-64
2022/11/15 04:35:37;;;;;;;17.73;10.23;;;8.00;99.90;;;;;;5008785;28;20056;-64
2022/11/15 04:38:04;;;;;;;15.00;10.55;;;8.00;99.90;;;;;;5008204;28;20148;-64
2022/11/15 04:40:30;;;;;;;16.83;11.00;;;8.00;99.90;;;;;;5041728;28;20054;-65
2022/11/15 04:42:55;;;;;;;20.00;11.30;;;7.90;99.90;;;;;;4991055;28;20127;-64
2022/11/15 04:45:21;;;;;;;19.05;11.02;;;7.90;99.90;;;;;;4992052;28;20049;-64
2022/11/15 04:47:47;;;;;;;18.00;11.43;;;7.90;99.90;;;;;;4991959;28;20065;-65
2022/11/15 04:50:13;;;;;;;18.17;11.48;;;7.80;99.90;;;;;;5002134;28;20108;-65
2022/11/15 04:52:43;;;;;;;16.73;10.77;;;7.80;99.90;;;;;;4991125;28;20177;-65
2022/11/15 04:55:13;;;;;;;19.73;11.65;;;7.80;99.90;;;;;;5007684;28;20054;-65
2022/11/15 04:57:39;;;;;;;18.95;11.43;;;7.80;99.90;;;;;;4990701;28;20054;-65
2022/11/15 05:00:06;;;;;;;17.95;10.75;;;7.80;99.90;;;;;;4987178;28;20052;-65
2022/11/15 05:05:15;;;;;;;18.30;11.10;;;7.80;99.90;;;;;;5008266;28;20056;-69
2022/11/15 05:07:41;;;;;;;17.50;11.13;;;7.70;99.90;;;;;;5001610;28;20053;-69
2022/11/15 05:10:07;;;;;;;16.85;10.13;;;7.80;99.90;;;;;;5008745;28;20053;-68
2022/11/15 05:12:33;;;;;;;18.55;11.65;;;7.80;99.90;;;;;;4987407;28;20043;-70
2022/11/15 05:14:59;;;;;;;19.33;11.15;;;7.80;99.90;;;;;;5017819;28;20045;-69
2022/11/15 05:17:24;;;;;;;20.83;11.65;;;7.80;99.90;;;;;;5008145;28;20048;-68
2022/11/15 05:19:51;;;;;;;18.05;10.73;;;7.80;99.90;;;;;;5008154;28;20046;-68
2022/11/15 05:22:18;;;;;;;15.70;10.50;;;7.90;99.90;;;;;;5003886;28;20133;-67
2022/11/15 05:24:43;;;;;;;16.00;10.63;;;7.90;99.90;;;;;;5007665;28;20137;-68
2022/11/15 05:27:09;;;;;;;17.75;10.70;;;7.90;99.90;;;;;;4992595;28;20057;-69
2022/11/15 05:29:35;;;;;;;16.17;10.32;;;7.90;99.90;;;;;;5001893;28;20391;-69
2022/11/15 05:32:00;;;;;;;15.80;9.88;;;8.00;99.90;;;;;;5005025;28;20082;-69
2022/11/15 05:34:26;;;;;;;15.50;10.13;;;8.00;99.90;;;;;;5005677;28;20383;-68
2022/11/15 05:36:52;;;;;;;16.52;10.40;;;8.00;99.90;;;;;;5007171;28;20468;-68
2022/11/15 05:39:18;;;;;;;14.57;9.73;;;8.10;99.90;;;;;;5002274;28;20496;-69
2022/11/15 05:41:49;;;;;;;18.33;10.48;;;8.10;99.90;;;;;;5005025;28;20042;-69
2022/11/15 05:44:16;;;;;;;15.93;9.38;;;8.10;99.90;;;;;;5003291;28;20116;-70
2022/11/15 05:46:41;;;;;;;16.05;10.63;;;8.10;99.90;;;;;;5005532;28;20045;-68
2022/11/15 05:49:09;;;;;;;19.38;10.27;;;8.20;99.90;;;;;;5007719;28;20045;-69
2022/11/15 05:51:34;;;;;;;17.55;11.05;;;8.20;99.90;;;;;;5006125;28;20748;-69
2022/11/15 05:54:00;;;;;;;17.77;10.23;;;8.20;99.90;;;;;;5010317;28;20057;-69
2022/11/15 05:56:26;;;;;;;17.13;9.65;;;8.20;99.90;;;;;;5010381;28;20117;-69
2022/11/15 05:58:53;;;;;;;13.95;9.20;;;8.20;99.90;;;;;;4994691;28;20491;-70
2022/11/15 06:01:19;;;;;;;14.55;9.43;;;8.20;99.90;;;;;;5015152;28;20056;-68
2022/11/15 06:03:45;;;;;;;15.60;9.98;;;8.20;99.90;;;;;;5011251;28;20050;-69
2022/11/15 06:06:10;;;;;;;14.77;10.13;;;8.20;99.90;;;;;;5010912;28;20057;-69
2022/11/15 06:08:36;;;;;;;16.52;10.25;;;8.20;99.90;;;;;;4994724;28;20367;-69
2022/11/15 06:11:06;;;;;;;15.48;9.68;;;8.20;99.90;;;;;;5005536;28;20108;-69
2022/11/15 06:13:32;;;;;;;16.63;10.40;;;8.20;99.90;;;;;;5011193;28;20050;-69
2022/11/15 06:15:58;;;;;;;23.70;10.73;;;8.20;99.90;;;;;;5010714;28;20686;-70
2022/11/15 06:18:24;;;;;;;15.35;9.80;;;8.20;99.90;;;;;;5010258;28;20045;-69
2022/11/15 06:20:50;;;;;;;15.35;10.13;;;8.20;99.90;;;;;;5010865;28;20046;-69
2022/11/15 06:23:15;;;;;;;18.17;9.63;;;8.10;99.90;;;;;;5010200;28;20460;-68
2022/11/15 06:25:41;;;;;;;14.60;9.55;;;8.10;99.90;;;;;;5009041;28;20049;-68
2022/11/15 06:28:07;;;;;;;14.80;10.02;;;8.10;99.90;;;;;;5043365;28;20061;-68
2022/11/15 06:30:32;;;;;;;14.27;9.52;;;8.10;99.90;;;;;;5009947;28;20127;-69
2022/11/15 06:33:00;;;;;;;18.35;10.90;;;8.10;99.90;;;;;;5009479;28;20417;-69
2022/11/15 06:35:28;;;;;;;16.10;9.93;;;8.00;99.90;;;;;;4990906;28;20468;-69
2022/11/15 06:37:54;;;;;;;13.95;9.00;;;8.00;99.90;;;;;;5020075;28;20042;-69
2022/11/15 06:40:19;;;;;;;15.60;9.68;;;8.10;99.90;;;;;;4978236;28;20100;-71
2022/11/15 06:42:45;;;;;;;15.90;9.18;;;8.10;99.90;;;;;;4990486;28;20456;-70
2022/11/15 06:45:11;;;;;;;14.20;9.77;;;8.10;99.90;;;;;;4993267;28;20519;-71
2022/11/15 06:47:47;;;;;;;13.10;9.10;;;8.10;99.90;;;;;;5011843;28;20585;-71
2022/11/15 06:50:12;;;;;;;16.45;9.95;;;8.10;99.90;;;;;;4988651;28;20049;-71
2022/11/15 06:52:38;;;;;;;13.85;9.23;;;8.00;99.90;;;;;;5009453;28;20050;-71
2022/11/15 06:55:04;;;;;;;13.23;9.32;;;8.00;99.90;;;;;;5010001;28;20514;-70
2022/11/15 06:57:30;;;;;;;17.88;9.98;;;8.00;99.90;;;;;;5010658;28;20145;-71
2022/11/15 06:59:56;;;;;;;13.77;9.60;;;8.00;99.90;;;;;;5010348;28;20160;-72
2022/11/15 07:02:21;;;;;;;15.38;9.98;;;8.00;99.90;;;;;;4990644;28;20088;-71
2022/11/15 07:04:47;;;;;;;16.55;9.02;;;8.00;99.90;;;;;;5037901;28;20463;-71
2022/11/15 07:07:13;;;;;;;14.43;9.82;;;8.00;99.90;;;;;;5013753;28;20124;-72
2022/11/15 07:09:38;;;;;;;17.80;9.73;;;8.00;99.90;;;;;;5008974;28;20049;-72
2022/11/15 07:12:05;;;;;;;15.57;9.55;;;7.90;99.90;;;;;;4974465;28;20074;-71
2022/11/15 07:14:30;;;;;;;14.55;9.48;;;7.90;99.90;;;;;;4977766;28;20124;-71
2022/11/15 07:16:56;;;;;;;15.32;10.50;;;7.90;99.90;;;;;;5008348;28;20116;-71
2022/11/15 07:19:22;;;;;;;14.40;10.38;;;7.80;99.90;;;;;;5010652;28;20415;-70
2022/11/15 07:21:48;;;;;;;16.55;10.00;;;7.70;99.90;;;;;;5005928;28;20447;-70
2022/11/15 07:24:13;;;;;;;13.55;9.43;;;7.80;99.90;;;;;;5009549;28;20080;-71
2022/11/15 07:26:39;;;;;;;17.83;10.55;;;7.70;99.90;;;;;;5009049;28;20080;-71
2022/11/15 07:29:05;;;;;;;16.45;10.40;;;7.60;99.90;;;;;;4990446;28;20353;-71
2022/11/15 07:31:30;;;;;;;14.98;9.43;;;7.60;99.90;;;;;;5009659;28;20049;-70
2022/11/15 07:33:56;;;;;;;17.15;10.13;;;7.50;99.90;;;;;;5010066;28;20042;-71
2022/11/15 07:36:22;;;;;;;16.20;10.07;;;7.50;99.90;;;;;;4994058;28;20709;-71
2022/11/15 07:38:48;;;;;;;15.75;9.45;;;7.50;99.90;;;;;;5008713;28;20056;-71
2022/11/15 07:41:14;;;;;;;14.52;10.05;;;7.60;99.90;;;;;;4971361;28;20065;-71
2022/11/15 07:43:39;;;;;;;13.85;9.20;;;7.60;99.90;;;;;;5023095;28;20050;-71
2022/11/15 07:46:08;;;;;;;14.00;9.77;;;7.70;99.90;;;;;;4991089;28;20053;-71
2022/11/15 07:48:35;;;;;;;15.05;10.05;;;7.80;99.90;;;;;;4992171;28;20220;-70
2022/11/15 07:51:01;;;;;;;17.35;10.98;;;7.80;99.90;;;;;;5008069;28;20046;-70
2022/11/15 07:53:27;;;;;;;13.35;8.40;;;7.90;99.90;;;;;;4991538;28;20057;-71
2022/11/15 07:55:53;;;;;;;17.00;8.88;;;7.90;99.90;;;;;;5010958;28;20625;-71
2022/11/15 07:58:19;;;;;;;15.52;9.32;;;7.90;99.90;;;;;;5010273;28;20050;-71
2022/11/15 08:00:45;;;;;;;13.27;8.38;;;8.00;99.90;;;;;;5023793;28;20472;-71
2022/11/15 08:03:12;;;;;;;14.15;9.13;;;8.10;99.90;;;;;;5021013;28;20053;-71
2022/11/15 08:05:38;;;;;;;14.07;8.15;;;8.20;99.90;;;;;;5015739;28;20058;-71
2022/11/15 08:08:04;;;;;;;12.85;7.50;;;8.30;99.90;;;;;;5003724;28;20417;-71
2022/11/15 08:10:30;;;;;;;16.58;8.05;;;8.50;99.90;;;;;;5001644;28;20494;-71
2022/11/15 08:13:08;;;;;;;15.15;8.20;;;8.60;99.90;;;;;;4992935;28;20397;-71
2022/11/15 08:15:34;;;;;;;10.70;7.53;;;8.70;99.90;;;;;;4988384;28;20042;-71
2022/11/15 08:18:11;;;;;;;11.13;7.57;;;8.70;99.90;;;;;;4997657;28;20099;-71
2022/11/15 08:20:37;;;;;;;14.50;7.93;;;8.90;99.90;;;;;;5004398;28;20033;-71
2022/11/15 08:23:03;;;;;;;10.70;7.55;;;9.00;99.90;;;;;;5007840;28;20087;-70
2022/11/15 08:25:30;;;;;;;9.52;6.90;;;9.10;99.90;;;;;;5008363;28;20056;-71
2022/11/15 08:27:57;;;;;;;10.82;6.75;;;9.20;99.90;;;;;;5008238;28;20140;-71
2022/11/15 08:30:23;;;;;;;11.23;6.90;;;9.30;99.90;;;;;;5008554;28;20072;-72
2022/11/15 08:32:49;;;;;;;9.63;6.10;;;9.40;99.90;;;;;;5008883;28;20162;-71
2022/11/15 08:35:16;;;;;;;13.13;6.88;;;9.50;99.90;;;;;;5003395;28;20074;-71
2022/11/15 08:37:41;;;;;;;10.27;6.30;;;9.60;99.90;;;;;;5008263;28;20035;-70
2022/11/15 08:40:07;;;;;;;9.13;6.47;;;9.60;99.90;;;;;;5007794;28;20456;-70
2022/11/15 08:42:33;;;;;;;12.60;6.65;;;9.60;99.90;;;;;;5008106;28;20104;-71
2022/11/15 08:44:59;;;;;;;10.32;6.07;;;9.70;99.90;;;;;;5032738;28;20462;-71
2022/11/15 08:47:25;;;;;;;11.95;6.47;;;9.80;99.90;;;;;;5002156;28;20049;-71
2022/11/15 08:49:50;;;;;;;10.38;7.13;;;9.80;99.90;;;;;;5008574;28;20042;-71
2022/11/15 08:52:16;;;;;;;9.32;6.75;;;9.80;99.90;;;;;;5008097;28;20125;-71
2022/11/15 08:54:42;;;;;;;9.30;6.25;;;9.90;99.90;;;;;;5007986;28;20121;-71
2022/11/15 08:57:09;;;;;;;9.65;6.32;;;9.90;99.90;;;;;;5008101;28;20132;-70
2022/11/15 08:59:35;;;;;;;12.55;7.07;;;10.00;99.90;;;;;;4989138;28;20053;-71
2022/11/15 09:02:01;;;;;;;9.20;6.05;;;10.00;99.90;;;;;;5021853;28;20068;-71
2022/11/15 09:04:27;;;;;;;9.68;6.10;;;10.00;99.90;;;;;;5009993;28;20767;-71
2022/11/15 09:06:53;;;;;;;10.13;5.97;;;10.00;99.90;;;;;;5008126;28;20129;-71
2022/11/15 09:09:19;;;;;;;11.38;6.35;;;10.10;99.90;;;;;;5006535;28;20061;-71
2022/11/15 09:11:44;;;;;;;9.65;6.78;;;10.10;99.90;;;;;;5000859;28;20045;-71
2022/11/15 09:14:12;;;;;;;11.50;6.57;;;10.10;99.90;;;;;;5006078;28;20490;-71
2022/11/15 09:16:38;;;;;;;8.63;6.25;;;10.10;99.90;;;;;;5009143;28;20038;-71
2022/11/15 09:19:05;;;;;;;8.90;5.97;;;10.10;99.90;;;;;;4990297;28;20107;-71
2022/11/15 09:21:32;;;;;;;12.75;6.20;;;10.10;99.90;;;;;;4991102;28;20071;-71
2022/11/15 09:23:58;;;;;;;9.98;6.35;;;10.10;99.90;;;;;;5006975;28;20933;-71
2022/11/15 09:26:23;;;;;;;8.23;5.70;;;10.10;99.90;;;;;;4976366;28;20061;-71
2022/11/15 09:28:49;;;;;;;12.18;6.22;;;10.10;99.90;;;;;;5011505;28;20382;-71
2022/11/15 09:31:15;;;;;;;9.77;6.40;;;10.10;99.90;;;;;;5006585;28;20472;-71
2022/11/15 09:33:44;;;;;;;10.88;6.22;;;10.10;99.90;;;;;;4992536;28;20057;-71
2022/11/15 09:36:10;;;;;;;10.27;6.35;;;10.10;99.90;;;;;;5011960;28;20080;-71
2022/11/15 09:38:37;;;;;;;11.63;6.45;;;10.20;99.90;;;;;;5011804;28;20069;-71
2022/11/15 09:41:23;;;;;;;11.75;6.55;;;10.30;99.90;;;;;;4994662;28;20049;-70
2022/11/15 09:44:03;;;;;;;11.05;6.97;;;10.30;99.90;;;;;;4998263;28;20558;-70
2022/11/15 09:46:53;;;;;;;11.27;6.20;;;10.40;99.90;;;;;;5007204;28;20045;-70
2022/11/15 09:49:19;;;;;;;9.20;5.88;;;10.50;99.90;;;;;;5012081;28;20105;-70
2022/11/15 09:51:47;;;;;;;13.60;6.65;;;10.70;99.90;;;;;;5008869;28;20077;-72
2022/11/15 09:54:31;;;;;;;12.50;6.72;;;10.90;99.90;;;;;;4994289;28;20048;-71
2022/11/15 09:57:12;;;;;;;9.20;6.05;;;11.10;99.90;;;;;;5007794;28;20045;-70
2022/11/15 09:59:47;;;;;;;10.57;6.43;;;11.30;99.90;;;;;;5042896;28;20037;-70
2022/11/15 10:02:41;;;;;;;11.30;6.72;;;11.50;99.90;;;;;;5010832;28;20107;-71
2022/11/15 10:05:11;;;;;;;9.63;6.00;;;11.80;99.90;;;;;;4993023;28;20454;-71
2022/11/15 10:07:59;;;;;;;8.07;5.63;;;12.10;99.90;;;;;;5010498;28;20049;-71
2022/11/15 10:10:45;;;;;;;10.02;5.50;;;12.30;99.90;;;;;;5011278;28;20103;-71
2022/11/15 10:13:20;;;;;;;8.68;5.50;;;12.60;99.90;;;;;;5010315;28;20049;-71
2022/11/15 10:15:47;;;;;;;7.88;5.13;;;12.80;99.90;;;;;;4993891;28;20050;-70
2022/11/15 10:18:20;;;;;;;10.38;5.35;;;13.10;99.90;;;;;;4976737;28;20042;-71
2022/11/15 10:20:51;;;;;;;9.43;5.15;;;13.30;99.90;;;;;;5010194;28;20107;-71
2022/11/15 10:23:18;;;;;;;7.75;4.65;;;13.40;99.90;;;;;;4977578;28;20407;-71
2022/11/15 10:25:44;;;;;;;7.30;4.80;;;13.50;99.90;;;;;;5007653;28;20460;-71
2022/11/15 10:28:12;;;;;;;7.47;4.05;;;13.80;99.90;;;;;;5007284;28;20078;-70
2022/11/15 10:30:40;;;;;;;9.50;4.33;;;13.90;99.90;;;;;;5007771;28;20053;-71
2022/11/15 10:33:29;;;;;;;6.50;4.47;;;14.20;99.90;;;;;;5009608;28;20370;-71
2022/11/15 10:36:13;;;;;;;6.40;3.50;;;14.70;99.90;;;;;;5010937;28;20042;-70
2022/11/15 10:38:48;;;;;;;6.90;4.10;;;15.30;99.90;;;;;;5010159;28;20050;-70
2022/11/15 10:41:14;;;;;;;4.65;3.80;;;15.70;99.90;;;;;;5010997;28;20116;-71
2022/11/15 10:43:40;;;;;;;6.35;3.72;;;16.20;99.90;;;;;;5005873;28;20042;-71
2022/11/15 10:46:22;;;;;;;6.20;3.40;;;16.80;99.90;;;;;;5010010;28;20353;-70
2022/11/15 10:48:48;;;;;;;5.93;3.20;;;17.20;99.90;;;;;;5009871;28;20038;-70
2022/11/15 10:51:22;;;;;;;7.97;3.55;;;17.60;99.60;;;;;;5010697;28;20192;-71
2022/11/15 10:53:48;;;;;;;6.68;3.15;;;17.90;99.00;;;;;;5009843;28;20069;-71
2022/11/15 10:56:15;;;;;;;4.60;3.13;;;18.10;99.50;;;;;;5009678;28;20073;-71
2022/11/15 10:58:42;;;;;;;6.72;3.25;;;18.40;99.20;;;;;;5007459;28;20049;-71
2022/11/15 11:01:16;;;;;;;4.20;2.72;;;18.50;98.40;;;;;;5003854;28;20053;-71
2022/11/15 11:03:43;;;;;;;4.75;2.78;;;18.40;96.70;;;;;;4979326;28;20046;-71
2022/11/15 11:06:17;;;;;;;5.68;3.20;;;18.90;97.50;;;;;;5010615;28;20137;-71
2022/11/15 11:08:57;;;;;;;5.68;3.33;;;19.30;97.00;;;;;;5003336;28;20134;-72
2022/11/15 11:11:23;;;;;;;7.85;3.33;;;19.70;96.50;;;;;;4991940;28;20104;-71
2022/11/15 11:13:49;;;;;;;6.15;3.42;;;19.80;96.10;;;;;;4989780;28;20050;-71
2022/11/15 11:16:15;;;;;;;5.55;3.05;;;19.70;94.60;;;;;;5008825;28;20057;-70
2022/11/15 11:19:22;;;;;;;6.05;3.38;;;19.60;94.50;;;;;;5009692;28;20056;-70
2022/11/15 11:22:15;;;;;;;4.80;3.25;;;19.70;94.90;;;;;;5001632;28;20473;-70
2022/11/15 11:24:44;;;;;;;4.93;2.78;;;19.80;95.40;;;;;;5008624;28;20102;-70
2022/11/15 11:27:37;;;;;;;4.38;2.72;;;19.40;95.00;;;;;;5007642;28;20108;-71
2022/11/15 11:30:24;;;;;;;5.13;2.63;;;19.20;94.30;;;;;;5008653;28;20066;-71
2022/11/15 11:32:55;;;;;;;6.35;3.50;;;18.90;94.60;;;;;;5007182;28;20053;-72
2022/11/15 11:35:51;;;;;;;8.55;4.38;;;18.60;95.30;;;;;;5022073;28;20045;-71
2022/11/15 11:38:19;;;;;;;6.57;2.90;;;18.40;95.00;;;;;;5000556;28;20644;-72
2022/11/15 11:40:48;;;;;;;;;;;18.40;94.90;;;;;;5008335;28;20062;-72
2022/11/15 11:43:25;;;;;;;7.65;2.55;;;18.20;95.40;;;;;;5009004;28;19925;-70
2022/11/15 11:46:14;;;;;;;7.30;3.00;;;17.90;96.30;;;;;;5007988;28;20050;-71
2022/11/15 11:48:45;;;;;;;6.80;3.35;;;17.40;97.00;;;;;;4991319;28;20104;-71
2022/11/15 11:51:23;;;;;;;9.48;3.80;;;17.20;97.70;;;;;;5007398;28;20073;-71
2022/11/15 11:54:03;;;;;;;5.82;3.75;;;16.90;98.10;;;;;;4987253;28;20060;-71
2022/11/15 11:56:32;;;;;;;7.95;3.65;;;16.70;98.60;;;;;;5008768;28;20053;-71
2022/11/15 11:59:00;;;;;;;;;;;16.40;99.80;;;;;;4992536;28;20048;-71
2022/11/15 12:01:40;;;;;;;;;;;16.20;99.90;;;;;;5008928;28;19975;-71
2022/11/15 12:04:21;;;;;;;6.43;3.40;;;16.10;99.90;;;;;;5007515;28;19920;-72
2022/11/15 12:06:51;;;;;;;5.47;3.70;;;15.90;99.90;;;;;;5007575;28;20050;-72
2022/11/15 12:09:20;;;;;;;6.00;4.00;;;15.70;99.90;;;;;;5002243;28;20061;-71
2022/11/15 12:12:01;;;;;;;5.45;3.33;;;15.50;99.90;;;;;;4990983;28;20196;-71
2022/11/15 12:14:46;;;;;;;6.53;3.97;;;15.50;99.90;;;;;;5008313;28;20549;-70
2022/11/15 12:17:11;;;;;;;7.13;3.80;;;15.50;99.90;;;;;;5008624;28;20057;-71
2022/11/15 12:19:38;;;;;;;7.20;3.78;;;15.80;99.90;;;;;;5007399;28;20042;-71
2022/11/15 12:22:38;;;;;;;5.95;3.75;;;15.40;99.90;;;;;;5008303;28;20053;-70
2022/11/15 12:25:20;;;;;;;9.40;4.60;;;15.40;99.90;;;;;;5006283;28;20041;-69
2022/11/15 12:27:55;;;;;;;9.50;4.13;;;15.30;99.90;;;;;;5006665;28;20041;-69
2022/11/15 12:30:21;;;;;;;6.57;3.47;;;15.10;99.90;;;;;;5005396;28;20061;-69
2022/11/15 12:33:01;;;;;;;7.97;4.20;;;15.00;99.90;;;;;;5005727;28;20057;-69
2022/11/15 12:35:40;;;;;;;6.45;3.80;;;15.00;99.90;;;;;;4989164;28;20714;-68
2022/11/15 12:38:12;;;;;;;5.15;3.20;;;15.20;99.90;;;;;;5006941;28;20041;-70
2022/11/15 12:40:57;;;;;;;6.53;3.75;;;15.30;99.90;;;;;;5007407;28;20055;-69
2022/11/15 12:43:42;;;;;;;4.75;3.22;;;15.20;99.90;;;;;;5006306;28;20045;-69
2022/11/15 12:46:31;;;;;;;8.20;3.88;;;15.10;99.90;;;;;;5007874;28;20052;-66
2022/11/15 12:48:58;;;;;;;6.30;3.65;;;14.90;99.90;;;;;;4986975;28;20048;-67
2022/11/15 12:51:42;;;;;;;6.20;3.37;;;14.90;99.90;;;;;;4975583;28;20045;-66
2022/11/15 12:54:23;;;;;;;5.72;3.60;;;14.80;99.90;;;;;;4991249;28;20362;-67
2022/11/15 12:57:15;;;;;;;6.32;3.15;;;14.70;99.90;;;;;;5008009;28;20056;-67
2022/11/15 12:59:54;;;;;;;8.38;3.20;;;14.70;99.90;;;;;;5009569;28;20124;-65
2022/11/15 13:02:35;;;;;;;6.53;3.80;;;14.60;99.90;;;;;;4993370;28;20112;-66
2022/11/15 13:05:33;;;;;;;5.47;3.40;;;14.50;99.90;;;;;;5044275;28;20422;-67
2022/11/15 13:07:59;;;;;;;5.72;3.55;;;14.50;99.90;;;;;;5003567;28;20053;-65
2022/11/15 13:10:32;;;;;;;8.23;3.40;;;14.50;99.90;;;;;;4992072;28;20050;-69